Detalii statie MIRACOM [00001CFF]

Toti senzorii

Date Temperatura solului [C]Precipitatii [mm]Voltaj baterie [mV]Leaf Wetness [Min]HC Air temperature [C]HC Relative humidity [%]Punctul de roua [C]
medieminmaxsumaultimatimpmedieminmaxmediemediemin
2019-06-17 17:00:00 30.8 30.5 31.5 0 7070 30.35 30.05 30.77 13.24 0
2019-06-17 18:00:00 30.2 29.9 30.5 0 7158 29.67 29.35 30.09 1.33 0
2019-06-17 19:00:00 29.6 29.1 30.1 0 7108 28.86 28.16 29.39 0 0 0
2019-06-17 20:00:00 28.7 28.4 29.1 0 6962 25.94 23.76 27.97 0 0 0
2019-06-17 21:00:00 27.8 27.4 28.4 0 6962 22.94 22.16 24.07 0 0 0
2019-06-17 22:00:00 27 26.7 27.5 0 6942 21.29 20.67 21.88 0 0 0
2019-06-17 23:00:00 26.1 25.8 26.6 0 6942 20.17 19.61 20.47 0 0 0
2019-06-18 00:00:00 25.5 25.2 25.9 0 6932 20.16 19.35 21.31 0 0 0
2019-06-18 01:00:00 24.8 24.6 25.1 0 6932 21.53 21.43 21.69 0 0 0
2019-06-18 02:00:00 24.2 24.1 24.5 0 6932 21.64 21.47 21.78 0 0 0
2019-06-18 03:00:00 23.7 23.5 24.1 0 6932 21.03 20.6 21.43 0 0 0
2019-06-18 04:00:00 23.3 23.1 23.5 0 6932 19.54 18.28 20.51 0 0 0
2019-06-18 05:00:00 22.9 22.8 23.1 0 6922 18.1 17.87 18.23 0 0 0
2019-06-18 06:00:00 22.7 22.5 22.9 0 7010 19.25 18.31 20.71 0 0 0
2019-06-18 07:00:00 22.3 22.2 22.7 0 7118 21.99 21.03 23.07 0 0 0
2019-06-18 08:00:00 22.2 22.1 22.5 0 7148 24.36 23.26 25.37 0 0 0
2019-06-18 09:00:00 22.5 22.3 22.9 0 7254 25.95 25.39 27.09 0 0 0
2019-06-18 10:00:00 23.7 23 24.5 0 7342 27.35 26.23 28.11 0 0 0
2019-06-18 11:00:00 24.9 24.5 25.3 0 7342 28.56 27.9 29.25 0 0 0
2019-06-18 12:00:00 26 25.4 26.8 0 7332 30.89 29.16 32.41 0 0 0
2019-06-18 13:00:00 27.8 27.1 28.7 0 7332 32.2 31.37 33.11 0 0 0
2019-06-18 14:00:00 29.2 28.6 29.9 0 7332 32.73 31.31 33.51 0 0 0
2019-06-18 15:00:00 30.3 29.9 30.7 0 7314 32.58 30.83 33.57 0 0 0
2019-06-18 16:00:00 30.5 30.3 30.7 0 7138 29.26 27.21 31.64 0 0 0
2019-06-18 17:00:00 29.9 29.7 30.2 0 7342 30.22 28.05 30.98 8.98 0
2019-06-18 18:00:00 29.5 29.3 30 0 7158 29.81 29.34 30.63 26.18 0
2019-06-18 19:00:00 28.9 28.6 29.4 0 7314 28.49 27.47 29.21 0 0 0
2019-06-18 20:00:00 28.2 27.8 28.8 0 6982 25.5 23.28 27.23 1.37 0
2019-06-18 21:00:00 27.1 26.7 27.7 0 6922 22 21.16 23.13 0.03 0 0
2019-06-18 22:00:00 26.3 26 26.8 0 6952 21.19 20.74 22.02 2.82 0
2019-06-18 23:00:00 25.6 25.2 25.9 0 6942 20.96 20.34 21.33 0.55 0
2019-06-19 00:00:00 24.9 24.6 25.4 0 6932 19.53 18.64 20.93 0 0 0
2019-06-19 01:00:00 24.3 24.1 24.6 0 6922 20.29 19.79 20.57 0 0 0
2019-06-19 02:00:00 23.8 23.5 24.2 0 6932 19.78 19.54 20.14 0 0 0
2019-06-19 03:00:00 23.3 23.1 23.7 0 6922 18.68 18.46 19.33 0 0 0
2019-06-19 04:00:00 22.8 22.6 23.2 0 6922 18.59 18.39 18.74 0 0 0
2019-06-19 05:00:00 22.3 22.1 22.7 0 6922 17.92 17.66 18.17 0 0 0
2019-06-19 06:00:00 22 22 22.2 0 7030 19.28 18.31 20.16 0 0 0
2019-06-19 07:00:00 22 21.8 22.1 0 7118 21.49 20.33 23.19 0 0 0
2019-06-19 08:00:00 22 21.9 22.2 0 7118 24.35 23.5 25.42 0 0 0
2019-06-19 09:00:00 22.4 22.1 22.9 0 7158 26.38 25.43 27.57 0 0 0
2019-06-19 10:00:00 23.8 22.9 24.6 0 7332 29.14 27.62 31.32 0 0 0
2019-06-19 11:00:00 25.4 24.9 25.9 0 7332 30.98 29.83 31.87 0 0 0
2019-06-19 12:00:00 26.7 25.8 27.5 0 7324 33.12 31.43 35.02 0 0 0
2019-06-19 13:00:00 28.6 27.7 29.3 0 7324 33.78 31.51 35.62 0 0 0
2019-06-19 14:00:00 30.2 29.6 30.8 0 7324 33.53 31.79 36.73 0 0 0
2019-06-19 15:00:00 31.5 31.3 31.8 0 7304 32.14 30.84 34.11 0 0 0
2019-06-19 16:00:00 31.1 30.8 31.4 0 7332 31.79 30.96 32.59 0 0 0